sensor_id;sensor_type;location;lat;lon;timestamp;P1;durP1;ratioP1;P2;durP2;ratioP2
72728;SDS011;60843;52.062;4.508;2022-11-15T00:01:08;68.32;;;21.23;;
72728;SDS011;60843;52.062;4.508;2022-11-15T00:03:34;67.03;;;22.50;;
72728;SDS011;60843;52.062;4.508;2022-11-15T00:06:05;55.83;;;19.70;;
72728;SDS011;60843;52.062;4.508;2022-11-15T00:08:31;67.85;;;21.38;;
72728;SDS011;60843;52.062;4.508;2022-11-15T00:10:58;67.50;;;20.65;;
72728;SDS011;60843;52.062;4.508;2022-11-15T00:13:24;74.43;;;21.10;;
72728;SDS011;60843;52.062;4.508;2022-11-15T00:15:50;67.20;;;21.48;;
72728;SDS011;60843;52.062;4.508;2022-11-15T00:18:16;65.75;;;21.27;;
72728;SDS011;60843;52.062;4.508;2022-11-15T00:20:41;64.50;;;21.15;;
72728;SDS011;60843;52.062;4.508;2022-11-15T00:23:07;69.97;;;21.83;;
72728;SDS011;60843;52.062;4.508;2022-11-15T00:25:33;66.07;;;21.70;;
72728;SDS011;60843;52.062;4.508;2022-11-15T00:27:59;65.45;;;20.88;;
72728;SDS011;60843;52.062;4.508;2022-11-15T00:30:25;66.15;;;20.08;;
72728;SDS011;60843;52.062;4.508;2022-11-15T00:32:51;74.57;;;22.17;;
72728;SDS011;60843;52.062;4.508;2022-11-15T00:35:16;76.18;;;21.42;;
72728;SDS011;60843;52.062;4.508;2022-11-15T00:37:42;59.47;;;20.40;;
72728;SDS011;60843;52.062;4.508;2022-11-15T00:40:08;68.75;;;21.10;;
72728;SDS011;60843;52.062;4.508;2022-11-15T00:42:34;79.90;;;21.65;;
72728;SDS011;60843;52.062;4.508;2022-11-15T00:44:59;72.20;;;20.73;;
72728;SDS011;60843;52.062;4.508;2022-11-15T00:47:25;66.00;;;20.10;;
72728;SDS011;60843;52.062;4.508;2022-11-15T00:49:50;72.78;;;20.48;;
72728;SDS011;60843;52.062;4.508;2022-11-15T00:52:16;78.15;;;21.02;;
72728;SDS011;60843;52.062;4.508;2022-11-15T00:54:41;87.65;;;21.17;;
72728;SDS011;60843;52.062;4.508;2022-11-15T00:57:07;76.85;;;20.48;;
72728;SDS011;60843;52.062;4.508;2022-11-15T00:59:32;81.95;;;21.92;;
72728;SDS011;60843;52.062;4.508;2022-11-15T01:01:58;66.22;;;19.55;;
72728;SDS011;60843;52.062;4.508;2022-11-15T01:04:23;84.70;;;20.13;;
72728;SDS011;60843;52.062;4.508;2022-11-15T01:06:48;74.90;;;21.67;;
72728;SDS011;60843;52.062;4.508;2022-11-15T01:09:14;82.57;;;23.83;;
72728;SDS011;60843;52.062;4.508;2022-11-15T01:11:39;92.53;;;23.88;;
72728;SDS011;60843;52.062;4.508;2022-11-15T01:14:05;80.40;;;21.80;;
72728;SDS011;60843;52.062;4.508;2022-11-15T01:16:30;84.68;;;21.88;;
72728;SDS011;60843;52.062;4.508;2022-11-15T01:18:57;74.65;;;21.98;;
72728;SDS011;60843;52.062;4.508;2022-11-15T01:21:23;84.88;;;22.80;;
72728;SDS011;60843;52.062;4.508;2022-11-15T01:23:48;81.95;;;21.98;;
72728;SDS011;60843;52.062;4.508;2022-11-15T01:26:18;82.32;;;20.38;;
72728;SDS011;60843;52.062;4.508;2022-11-15T01:28:43;80.70;;;21.23;;
72728;SDS011;60843;52.062;4.508;2022-11-15T01:31:11;78.80;;;21.83;;
72728;SDS011;60843;52.062;4.508;2022-11-15T01:33:38;85.55;;;22.65;;
72728;SDS011;60843;52.062;4.508;2022-11-15T01:36:09;89.93;;;22.27;;
72728;SDS011;60843;52.062;4.508;2022-11-15T01:38:36;80.57;;;22.08;;
72728;SDS011;60843;52.062;4.508;2022-11-15T01:41:02;88.00;;;21.80;;
72728;SDS011;60843;52.062;4.508;2022-11-15T01:45:56;85.53;;;23.77;;
72728;SDS011;60843;52.062;4.508;2022-11-15T01:48:28;92.30;;;22.65;;
72728;SDS011;60843;52.062;4.508;2022-11-15T01:50:57;86.72;;;23.00;;
72728;SDS011;60843;52.062;4.508;2022-11-15T01:53:24;77.20;;;22.17;;
72728;SDS011;60843;52.062;4.508;2022-11-15T01:55:50;93.82;;;23.13;;
72728;SDS011;60843;52.062;4.508;2022-11-15T01:58:16;87.03;;;23.08;;
72728;SDS011;60843;52.062;4.508;2022-11-15T02:00:42;88.53;;;22.42;;
72728;SDS011;60843;52.062;4.508;2022-11-15T02:03:08;84.82;;;23.15;;
72728;SDS011;60843;52.062;4.508;2022-11-15T02:05:35;97.28;;;22.33;;
72728;SDS011;60843;52.062;4.508;2022-11-15T02:08:02;89.40;;;23.42;;
72728;SDS011;60843;52.062;4.508;2022-11-15T02:10:28;86.30;;;24.40;;
72728;SDS011;60843;52.062;4.508;2022-11-15T02:12:54;81.47;;;22.80;;
72728;SDS011;60843;52.062;4.508;2022-11-15T02:15:20;92.05;;;23.38;;
72728;SDS011;60843;52.062;4.508;2022-11-15T02:17:56;81.07;;;22.70;;
72728;SDS011;60843;52.062;4.508;2022-11-15T02:20:35;86.07;;;24.90;;
72728;SDS011;60843;52.062;4.508;2022-11-15T02:23:15;86.70;;;24.30;;
72728;SDS011;60843;52.062;4.508;2022-11-15T02:26:03;98.28;;;26.27;;
72728;SDS011;60843;52.062;4.508;2022-11-15T02:31:39;96.25;;;24.60;;
72728;SDS011;60843;52.062;4.508;2022-11-15T02:34:32;83.40;;;24.63;;
72728;SDS011;60843;52.062;4.508;2022-11-15T02:37:22;93.90;;;24.70;;
72728;SDS011;60843;52.062;4.508;2022-11-15T02:43:09;92.47;;;23.80;;
72728;SDS011;60843;52.062;4.508;2022-11-15T02:45:56;94.38;;;25.17;;
72728;SDS011;60843;52.062;4.508;2022-11-15T02:50:54;88.53;;;23.63;;
72728;SDS011;60843;52.062;4.508;2022-11-15T02:53:23;87.88;;;23.52;;
72728;SDS011;60843;52.062;4.508;2022-11-15T02:55:52;111.18;;;25.30;;
72728;SDS011;60843;52.062;4.508;2022-11-15T03:01:04;94.07;;;25.25;;
72728;SDS011;60843;52.062;4.508;2022-11-15T03:03:34;89.00;;;24.80;;
72728;SDS011;60843;52.062;4.508;2022-11-15T03:06:16;89.20;;;24.17;;
72728;SDS011;60843;52.062;4.508;2022-11-15T03:14:36;83.18;;;23.63;;
72728;SDS011;60843;52.062;4.508;2022-11-15T03:22:08;79.03;;;23.40;;
72728;SDS011;60843;52.062;4.508;2022-11-15T03:24:37;79.78;;;25.13;;
72728;SDS011;60843;52.062;4.508;2022-11-15T03:27:04;82.25;;;23.90;;
72728;SDS011;60843;52.062;4.508;2022-11-15T03:29:35;93.03;;;24.95;;
72728;SDS011;60843;52.062;4.508;2022-11-15T03:32:04;92.63;;;25.40;;
72728;SDS011;60843;52.062;4.508;2022-11-15T03:34:41;74.25;;;25.13;;
72728;SDS011;60843;52.062;4.508;2022-11-15T03:37:25;75.90;;;24.02;;
72728;SDS011;60843;52.062;4.508;2022-11-15T03:39:55;75.22;;;22.90;;
72728;SDS011;60843;52.062;4.508;2022-11-15T03:42:28;68.25;;;23.73;;
72728;SDS011;60843;52.062;4.508;2022-11-15T03:47:54;63.00;;;21.77;;
72728;SDS011;60843;52.062;4.508;2022-11-15T03:50:44;65.43;;;21.23;;
72728;SDS011;60843;52.062;4.508;2022-11-15T03:53:10;60.90;;;20.73;;
72728;SDS011;60843;52.062;4.508;2022-11-15T03:55:37;63.10;;;21.67;;
72728;SDS011;60843;52.062;4.508;2022-11-15T03:58:02;52.08;;;19.23;;
72728;SDS011;60843;52.062;4.508;2022-11-15T04:00:28;52.30;;;19.55;;
72728;SDS011;60843;52.062;4.508;2022-11-15T04:02:54;49.45;;;19.33;;
72728;SDS011;60843;52.062;4.508;2022-11-15T04:05:19;58.78;;;18.80;;
72728;SDS011;60843;52.062;4.508;2022-11-15T04:07:45;52.55;;;19.80;;
72728;SDS011;60843;52.062;4.508;2022-11-15T04:10:10;54.13;;;20.67;;
72728;SDS011;60843;52.062;4.508;2022-11-15T04:12:37;56.97;;;21.00;;
72728;SDS011;60843;52.062;4.508;2022-11-15T04:15:11;56.80;;;19.80;;
72728;SDS011;60843;52.062;4.508;2022-11-15T04:17:39;50.75;;;20.88;;
72728;SDS011;60843;52.062;4.508;2022-11-15T04:20:13;47.65;;;18.88;;
72728;SDS011;60843;52.062;4.508;2022-11-15T04:23:26;50.38;;;17.90;;
72728;SDS011;60843;52.062;4.508;2022-11-15T04:26:16;45.70;;;17.27;;
72728;SDS011;60843;52.062;4.508;2022-11-15T04:28:45;45.58;;;16.48;;
72728;SDS011;60843;52.062;4.508;2022-11-15T04:31:30;40.75;;;17.00;;
72728;SDS011;60843;52.062;4.508;2022-11-15T04:33:55;43.35;;;16.13;;
72728;SDS011;60843;52.062;4.508;2022-11-15T04:36:21;45.45;;;15.65;;
72728;SDS011;60843;52.062;4.508;2022-11-15T04:39:05;44.88;;;15.60;;
72728;SDS011;60843;52.062;4.508;2022-11-15T04:41:31;36.75;;;14.48;;
72728;SDS011;60843;52.062;4.508;2022-11-15T04:43:56;39.83;;;14.60;;
72728;SDS011;60843;52.062;4.508;2022-11-15T04:46:22;38.63;;;13.40;;
72728;SDS011;60843;52.062;4.508;2022-11-15T04:48:48;36.50;;;14.07;;
72728;SDS011;60843;52.062;4.508;2022-11-15T04:51:14;42.83;;;13.07;;
72728;SDS011;60843;52.062;4.508;2022-11-15T04:53:40;31.70;;;12.98;;
72728;SDS011;60843;52.062;4.508;2022-11-15T04:56:05;39.40;;;12.93;;
72728;SDS011;60843;52.062;4.508;2022-11-15T04:58:31;33.00;;;12.00;;
72728;SDS011;60843;52.062;4.508;2022-11-15T05:00:56;31.87;;;12.07;;
72728;SDS011;60843;52.062;4.508;2022-11-15T05:03:21;28.98;;;11.25;;
72728;SDS011;60843;52.062;4.508;2022-11-15T05:06:05;31.05;;;12.82;;
72728;SDS011;60843;52.062;4.508;2022-11-15T05:08:31;29.95;;;11.93;;
72728;SDS011;60843;52.062;4.508;2022-11-15T05:10:57;31.55;;;12.30;;
72728;SDS011;60843;52.062;4.508;2022-11-15T05:13:22;28.75;;;12.23;;
72728;SDS011;60843;52.062;4.508;2022-11-15T05:15:48;30.60;;;11.63;;
72728;SDS011;60843;52.062;4.508;2022-11-15T05:18:13;26.63;;;11.73;;
72728;SDS011;60843;52.062;4.508;2022-11-15T05:20:38;31.47;;;12.10;;
72728;SDS011;60843;52.062;4.508;2022-11-15T05:23:04;28.70;;;12.07;;
72728;SDS011;60843;52.062;4.508;2022-11-15T05:25:29;32.65;;;11.60;;
72728;SDS011;60843;52.062;4.508;2022-11-15T05:27:55;34.83;;;11.30;;
72728;SDS011;60843;52.062;4.508;2022-11-15T05:30:20;35.90;;;13.60;;
72728;SDS011;60843;52.062;4.508;2022-11-15T05:32:45;29.95;;;12.88;;
72728;SDS011;60843;52.062;4.508;2022-11-15T05:35:31;30.00;;;9.93;;
72728;SDS011;60843;52.062;4.508;2022-11-15T05:37:58;22.58;;;9.85;;
72728;SDS011;60843;52.062;4.508;2022-11-15T05:40:24;24.45;;;10.38;;
72728;SDS011;60843;52.062;4.508;2022-11-15T05:42:49;22.48;;;10.57;;
72728;SDS011;60843;52.062;4.508;2022-11-15T05:45:15;24.70;;;11.38;;
72728;SDS011;60843;52.062;4.508;2022-11-15T05:47:41;25.08;;;10.38;;
72728;SDS011;60843;52.062;4.508;2022-11-15T05:50:06;20.13;;;10.25;;
72728;SDS011;60843;52.062;4.508;2022-11-15T05:52:33;26.80;;;10.52;;
72728;SDS011;60843;52.062;4.508;2022-11-15T05:55:00;24.30;;;10.10;;
72728;SDS011;60843;52.062;4.508;2022-11-15T05:57:25;20.20;;;10.25;;
72728;SDS011;60843;52.062;4.508;2022-11-15T05:59:51;27.38;;;9.82;;
72728;SDS011;60843;52.062;4.508;2022-11-15T06:02:16;24.45;;;10.10;;
72728;SDS011;60843;52.062;4.508;2022-11-15T06:04:42;21.67;;;9.50;;
72728;SDS011;60843;52.062;4.508;2022-11-15T06:07:07;26.08;;;9.80;;
72728;SDS011;60843;52.062;4.508;2022-11-15T06:09:33;19.33;;;9.27;;
72728;SDS011;60843;52.062;4.508;2022-11-15T06:11:58;19.80;;;9.57;;
72728;SDS011;60843;52.062;4.508;2022-11-15T06:14:23;17.23;;;8.57;;
72728;SDS011;60843;52.062;4.508;2022-11-15T06:16:49;21.95;;;8.77;;
72728;SDS011;60843;52.062;4.508;2022-11-15T06:19:14;17.70;;;8.43;;
72728;SDS011;60843;52.062;4.508;2022-11-15T06:21:40;23.15;;;8.68;;
72728;SDS011;60843;52.062;4.508;2022-11-15T06:24:05;16.33;;;7.07;;
72728;SDS011;60843;52.062;4.508;2022-11-15T06:26:31;16.95;;;7.05;;
72728;SDS011;60843;52.062;4.508;2022-11-15T06:28:56;21.73;;;7.85;;
72728;SDS011;60843;52.062;4.508;2022-11-15T06:31:22;18.43;;;7.70;;
72728;SDS011;60843;52.062;4.508;2022-11-15T06:33:47;14.27;;;6.87;;
72728;SDS011;60843;52.062;4.508;2022-11-15T06:36:14;18.08;;;5.97;;
72728;SDS011;60843;52.062;4.508;2022-11-15T06:38:41;12.43;;;5.90;;
72728;SDS011;60843;52.062;4.508;2022-11-15T06:41:07;14.83;;;5.97;;
72728;SDS011;60843;52.062;4.508;2022-11-15T06:43:34;18.92;;;6.50;;
72728;SDS011;60843;52.062;4.508;2022-11-15T06:46:01;15.63;;;5.85;;
72728;SDS011;60843;52.062;4.508;2022-11-15T06:48:27;11.20;;;5.53;;
72728;SDS011;60843;52.062;4.508;2022-11-15T06:50:53;12.48;;;4.63;;
72728;SDS011;60843;52.062;4.508;2022-11-15T06:53:20;13.13;;;5.20;;
72728;SDS011;60843;52.062;4.508;2022-11-15T06:55:45;15.27;;;5.80;;
72728;SDS011;60843;52.062;4.508;2022-11-15T06:58:10;10.60;;;4.93;;
72728;SDS011;60843;52.062;4.508;2022-11-15T07:00:36;13.07;;;5.73;;
72728;SDS011;60843;52.062;4.508;2022-11-15T07:03:01;11.73;;;5.20;;
72728;SDS011;60843;52.062;4.508;2022-11-15T07:05:27;17.45;;;5.05;;
72728;SDS011;60843;52.062;4.508;2022-11-15T07:07:53;9.52;;;4.55;;
72728;SDS011;60843;52.062;4.508;2022-11-15T07:10:19;14.68;;;5.53;;
72728;SDS011;60843;52.062;4.508;2022-11-15T07:12:48;11.30;;;5.13;;
72728;SDS011;60843;52.062;4.508;2022-11-15T07:15:14;12.15;;;4.43;;
72728;SDS011;60843;52.062;4.508;2022-11-15T07:17:40;18.98;;;5.32;;
72728;SDS011;60843;52.062;4.508;2022-11-15T07:20:06;13.30;;;5.25;;
72728;SDS011;60843;52.062;4.508;2022-11-15T07:22:31;12.65;;;5.13;;
72728;SDS011;60843;52.062;4.508;2022-11-15T07:24:57;12.85;;;4.97;;
72728;SDS011;60843;52.062;4.508;2022-11-15T07:27:22;11.70;;;4.73;;
72728;SDS011;60843;52.062;4.508;2022-11-15T07:29:47;10.88;;;4.28;;
72728;SDS011;60843;52.062;4.508;2022-11-15T07:32:13;15.75;;;4.68;;
72728;SDS011;60843;52.062;4.508;2022-11-15T07:34:38;9.20;;;3.70;;
72728;SDS011;60843;52.062;4.508;2022-11-15T07:37:04;24.13;;;4.67;;
72728;SDS011;60843;52.062;4.508;2022-11-15T07:39:29;12.17;;;4.43;;
72728;SDS011;60843;52.062;4.508;2022-11-15T07:41:54;11.73;;;3.50;;
72728;SDS011;60843;52.062;4.508;2022-11-15T07:44:39;14.13;;;3.90;;
72728;SDS011;60843;52.062;4.508;2022-11-15T07:47:05;8.37;;;3.57;;
72728;SDS011;60843;52.062;4.508;2022-11-15T07:49:30;7.67;;;3.57;;
72728;SDS011;60843;52.062;4.508;2022-11-15T07:51:55;9.82;;;3.67;;
72728;SDS011;60843;52.062;4.508;2022-11-15T07:54:21;12.20;;;3.70;;
72728;SDS011;60843;52.062;4.508;2022-11-15T07:56:49;8.00;;;3.30;;
72728;SDS011;60843;52.062;4.508;2022-11-15T07:59:14;9.25;;;3.70;;
72728;SDS011;60843;52.062;4.508;2022-11-15T08:01:39;8.40;;;3.27;;
72728;SDS011;60843;52.062;4.508;2022-11-15T08:04:04;11.83;;;4.10;;
72728;SDS011;60843;52.062;4.508;2022-11-15T08:06:30;8.53;;;3.67;;
72728;SDS011;60843;52.062;4.508;2022-11-15T08:08:55;11.18;;;4.25;;
72728;SDS011;60843;52.062;4.508;2022-11-15T08:11:21;11.83;;;4.37;;
72728;SDS011;60843;52.062;4.508;2022-11-15T08:13:46;14.47;;;4.60;;
72728;SDS011;60843;52.062;4.508;2022-11-15T08:16:11;10.50;;;4.20;;
72728;SDS011;60843;52.062;4.508;2022-11-15T08:18:37;7.93;;;4.50;;
72728;SDS011;60843;52.062;4.508;2022-11-15T08:21:03;9.43;;;4.00;;
72728;SDS011;60843;52.062;4.508;2022-11-15T08:23:28;10.48;;;4.28;;
72728;SDS011;60843;52.062;4.508;2022-11-15T08:26:01;9.93;;;3.65;;
72728;SDS011;60843;52.062;4.508;2022-11-15T08:28:30;7.30;;;3.83;;
72728;SDS011;60843;52.062;4.508;2022-11-15T08:30:56;13.45;;;4.40;;
72728;SDS011;60843;52.062;4.508;2022-11-15T08:33:21;8.10;;;3.85;;
72728;SDS011;60843;52.062;4.508;2022-11-15T08:35:47;10.02;;;4.57;;
72728;SDS011;60843;52.062;4.508;2022-11-15T08:38:13;10.57;;;5.50;;
72728;SDS011;60843;52.062;4.508;2022-11-15T08:40:39;9.68;;;4.25;;
72728;SDS011;60843;52.062;4.508;2022-11-15T08:43:04;12.40;;;5.07;;
72728;SDS011;60843;52.062;4.508;2022-11-15T08:45:30;17.02;;;5.13;;
72728;SDS011;60843;52.062;4.508;2022-11-15T08:47:56;12.57;;;5.88;;
72728;SDS011;60843;52.062;4.508;2022-11-15T08:50:21;9.00;;;4.67;;
72728;SDS011;60843;52.062;4.508;2022-11-15T08:52:47;13.63;;;5.50;;
72728;SDS011;60843;52.062;4.508;2022-11-15T08:55:13;15.48;;;5.05;;
72728;SDS011;60843;52.062;4.508;2022-11-15T08:57:38;39.15;;;6.95;;
72728;SDS011;60843;52.062;4.508;2022-11-15T09:00:04;13.70;;;4.90;;
72728;SDS011;60843;52.062;4.508;2022-11-15T09:02:30;17.98;;;5.32;;
72728;SDS011;60843;52.062;4.508;2022-11-15T09:04:55;11.87;;;5.20;;
72728;SDS011;60843;52.062;4.508;2022-11-15T09:07:20;8.83;;;4.80;;
72728;SDS011;60843;52.062;4.508;2022-11-15T09:09:46;13.57;;;5.20;;
72728;SDS011;60843;52.062;4.508;2022-11-15T09:12:11;9.70;;;4.95;;
72728;SDS011;60843;52.062;4.508;2022-11-15T09:14:37;11.83;;;5.03;;
72728;SDS011;60843;52.062;4.508;2022-11-15T09:17:02;8.23;;;4.20;;
72728;SDS011;60843;52.062;4.508;2022-11-15T09:19:28;11.13;;;4.38;;
72728;SDS011;60843;52.062;4.508;2022-11-15T09:21:53;8.87;;;4.17;;
72728;SDS011;60843;52.062;4.508;2022-11-15T09:24:19;11.05;;;4.78;;
72728;SDS011;60843;52.062;4.508;2022-11-15T09:26:45;9.40;;;4.28;;
72728;SDS011;60843;52.062;4.508;2022-11-15T09:29:10;10.75;;;5.68;;
72728;SDS011;60843;52.062;4.508;2022-11-15T09:31:35;33.60;;;6.70;;
72728;SDS011;60843;52.062;4.508;2022-11-15T09:34:01;12.77;;;4.38;;
72728;SDS011;60843;52.062;4.508;2022-11-15T09:36:26;9.80;;;4.30;;
72728;SDS011;60843;52.062;4.508;2022-11-15T09:38:52;14.37;;;4.20;;
72728;SDS011;60843;52.062;4.508;2022-11-15T09:50:10;10.27;;;3.38;;
72728;SDS011;60843;52.062;4.508;2022-11-15T09:52:37;9.02;;;4.00;;
72728;SDS011;60843;52.062;4.508;2022-11-15T09:55:05;5.30;;;2.90;;
72728;SDS011;60843;52.062;4.508;2022-11-15T09:57:37;11.85;;;3.35;;
72728;SDS011;60843;52.062;4.508;2022-11-15T10:00:08;7.72;;;3.40;;
72728;SDS011;60843;52.062;4.508;2022-11-15T10:05:42;6.57;;;2.80;;
72728;SDS011;60843;52.062;4.508;2022-11-15T10:11:06;6.03;;;3.00;;
72728;SDS011;60843;52.062;4.508;2022-11-15T10:13:35;26.67;;;4.05;;
72728;SDS011;60843;52.062;4.508;2022-11-15T10:16:28;6.50;;;2.70;;
72728;SDS011;60843;52.062;4.508;2022-11-15T10:24:20;6.55;;;3.17;;
72728;SDS011;60843;52.062;4.508;2022-11-15T10:26:50;20.52;;;3.70;;
72728;SDS011;60843;52.062;4.508;2022-11-15T10:29:19;10.30;;;2.27;;
72728;SDS011;60843;52.062;4.508;2022-11-15T10:31:45;7.05;;;2.03;;
72728;SDS011;60843;52.062;4.508;2022-11-15T10:34:21;13.17;;;2.83;;
72728;SDS011;60843;52.062;4.508;2022-11-15T10:36:54;7.53;;;2.15;;
72728;SDS011;60843;52.062;4.508;2022-11-15T10:39:21;15.70;;;2.72;;
72728;SDS011;60843;52.062;4.508;2022-11-15T10:41:48;14.38;;;2.65;;
72728;SDS011;60843;52.062;4.508;2022-11-15T10:46:45;3.45;;;2.00;;
72728;SDS011;60843;52.062;4.508;2022-11-15T10:51:48;14.55;;;3.50;;
72728;SDS011;60843;52.062;4.508;2022-11-15T10:54:23;3.78;;;2.05;;
72728;SDS011;60843;52.062;4.508;2022-11-15T10:56:53;8.73;;;3.38;;
72728;SDS011;60843;52.062;4.508;2022-11-15T10:59:27;13.45;;;2.85;;
72728;SDS011;60843;52.062;4.508;2022-11-15T11:01:56;6.03;;;2.22;;
72728;SDS011;60843;52.062;4.508;2022-11-15T11:04:22;5.20;;;2.22;;
72728;SDS011;60843;52.062;4.508;2022-11-15T11:06:55;6.18;;;1.65;;
72728;SDS011;60843;52.062;4.508;2022-11-15T11:09:23;8.13;;;1.77;;
72728;SDS011;60843;52.062;4.508;2022-11-15T11:11:51;21.38;;;3.55;;
72728;SDS011;60843;52.062;4.508;2022-11-15T11:16:58;5.70;;;1.73;;
72728;SDS011;60843;52.062;4.508;2022-11-15T11:30:48;4.97;;;1.77;;
72728;SDS011;60843;52.062;4.508;2022-11-15T11:33:33;8.35;;;1.80;;
72728;SDS011;60843;52.062;4.508;2022-11-15T11:52:13;7.53;;;1.50;;
72728;SDS011;60843;52.062;4.508;2022-11-15T11:54:54;5.68;;;1.15;;
72728;SDS011;60843;52.062;4.508;2022-11-15T11:57:27;6.57;;;1.27;;
72728;SDS011;60843;52.062;4.508;2022-11-15T12:00:04;4.75;;;1.13;;
72728;SDS011;60843;52.062;4.508;2022-11-15T12:02:41;9.57;;;1.77;;
72728;SDS011;60843;52.062;4.508;2022-11-15T12:05:29;4.75;;;1.00;;
72728;SDS011;60843;52.062;4.508;2022-11-15T12:08:01;8.02;;;1.20;;
72728;SDS011;60843;52.062;4.508;2022-11-15T12:10:48;5.22;;;1.20;;
72728;SDS011;60843;52.062;4.508;2022-11-15T12:13:20;7.55;;;1.02;;
72728;SDS011;60843;52.062;4.508;2022-11-15T12:18:33;2.35;;;1.02;;
72728;SDS011;60843;52.062;4.508;2022-11-15T12:21:00;4.57;;;1.55;;
72728;SDS011;60843;52.062;4.508;2022-11-15T12:23:32;3.88;;;1.05;;
72728;SDS011;60843;52.062;4.508;2022-11-15T12:26:01;8.60;;;1.20;;
72728;SDS011;60843;52.062;4.508;2022-11-15T12:31:06;2.00;;;0.77;;
72728;SDS011;60843;52.062;4.508;2022-11-15T12:33:37;5.60;;;1.10;;
72728;SDS011;60843;52.062;4.508;2022-11-15T12:36:05;5.47;;;1.17;;
72728;SDS011;60843;52.062;4.508;2022-11-15T12:41:21;4.13;;;0.73;;
72728;SDS011;60843;52.062;4.508;2022-11-15T12:43:53;4.55;;;0.90;;
72728;SDS011;60843;52.062;4.508;2022-11-15T12:48:47;3.25;;;0.80;;
72728;SDS011;60843;52.062;4.508;2022-11-15T12:51:13;8.48;;;1.20;;
72728;SDS011;60843;52.062;4.508;2022-11-15T12:53:39;6.60;;;1.05;;
72728;SDS011;60843;52.062;4.508;2022-11-15T13:06:44;3.33;;;0.77;;
72728;SDS011;60843;52.062;4.508;2022-11-15T13:11:59;4.70;;;0.95;;
72728;SDS011;60843;52.062;4.508;2022-11-15T13:22:13;6.63;;;1.00;;
72728;SDS011;60843;52.062;4.508;2022-11-15T13:24:58;7.15;;;1.08;;
72728;SDS011;60843;52.062;4.508;2022-11-15T13:27:24;3.42;;;0.90;;
72728;SDS011;60843;52.062;4.508;2022-11-15T13:29:49;5.88;;;0.98;;
72728;SDS011;60843;52.062;4.508;2022-11-15T13:32:15;1.80;;;0.70;;
72728;SDS011;60843;52.062;4.508;2022-11-15T13:34:44;2.42;;;0.70;;
72728;SDS011;60843;52.062;4.508;2022-11-15T13:39:47;4.15;;;0.73;;
72728;SDS011;60843;52.062;4.508;2022-11-15T13:42:16;19.25;;;1.50;;
72728;SDS011;60843;52.062;4.508;2022-11-15T13:44:58;3.05;;;0.80;;
72728;SDS011;60843;52.062;4.508;2022-11-15T13:47:25;3.45;;;0.85;;
72728;SDS011;60843;52.062;4.508;2022-11-15T13:49:52;8.25;;;1.00;;
72728;SDS011;60843;52.062;4.508;2022-11-15T13:52:17;7.85;;;1.05;;
72728;SDS011;60843;52.062;4.508;2022-11-15T13:57:21;6.57;;;0.90;;
72728;SDS011;60843;52.062;4.508;2022-11-15T13:59:49;4.78;;;0.80;;
72728;SDS011;60843;52.062;4.508;2022-11-15T14:04:55;6.25;;;0.90;;
72728;SDS011;60843;52.062;4.508;2022-11-15T14:07:24;4.38;;;0.70;;
72728;SDS011;60843;52.062;4.508;2022-11-15T14:09:51;2.15;;;0.68;;
72728;SDS011;60843;52.062;4.508;2022-11-15T14:12:25;4.43;;;0.60;;
72728;SDS011;60843;52.062;4.508;2022-11-15T14:14:51;5.45;;;0.77;;
72728;SDS011;60843;52.062;4.508;2022-11-15T14:17:35;8.15;;;0.80;;
72728;SDS011;60843;52.062;4.508;2022-11-15T14:20:02;9.70;;;1.10;;
72728;SDS011;60843;52.062;4.508;2022-11-15T14:22:54;3.63;;;0.60;;
72728;SDS011;60843;52.062;4.508;2022-11-15T14:25:51;4.53;;;0.70;;
72728;SDS011;60843;52.062;4.508;2022-11-15T14:30:48;4.63;;;0.82;;
72728;SDS011;60843;52.062;4.508;2022-11-15T14:35:49;2.55;;;0.90;;
72728;SDS011;60843;52.062;4.508;2022-11-15T14:38:15;3.25;;;0.80;;
72728;SDS011;60843;52.062;4.508;2022-11-15T14:40:40;3.65;;;0.60;;
72728;SDS011;60843;52.062;4.508;2022-11-15T14:43:08;4.53;;;0.82;;
72728;SDS011;60843;52.062;4.508;2022-11-15T14:45:35;1.50;;;0.50;;
72728;SDS011;60843;52.062;4.508;2022-11-15T14:48:00;6.00;;;0.80;;
72728;SDS011;60843;52.062;4.508;2022-11-15T14:50:25;2.73;;;0.53;;
72728;SDS011;60843;52.062;4.508;2022-11-15T14:52:52;1.80;;;0.70;;
72728;SDS011;60843;52.062;4.508;2022-11-15T14:55:22;4.32;;;0.93;;
72728;SDS011;60843;52.062;4.508;2022-11-15T14:57:49;2.97;;;0.73;;
72728;SDS011;60843;52.062;4.508;2022-11-15T15:00:15;3.03;;;0.73;;
72728;SDS011;60843;52.062;4.508;2022-11-15T15:02:45;3.03;;;0.75;;
72728;SDS011;60843;52.062;4.508;2022-11-15T15:05:24;4.88;;;0.90;;
72728;SDS011;60843;52.062;4.508;2022-11-15T15:07:52;5.07;;;1.50;;
72728;SDS011;60843;52.062;4.508;2022-11-15T15:10:18;2.63;;;0.73;;
72728;SDS011;60843;52.062;4.508;2022-11-15T15:12:43;2.13;;;0.77;;
72728;SDS011;60843;52.062;4.508;2022-11-15T15:15:12;6.27;;;0.80;;
72728;SDS011;60843;52.062;4.508;2022-11-15T15:17:39;6.53;;;0.80;;
72728;SDS011;60843;52.062;4.508;2022-11-15T15:20:04;3.17;;;0.90;;
72728;SDS011;60843;52.062;4.508;2022-11-15T15:22:30;3.70;;;0.80;;
72728;SDS011;60843;52.062;4.508;2022-11-15T15:24:55;4.57;;;1.40;;
72728;SDS011;60843;52.062;4.508;2022-11-15T15:27:21;5.80;;;0.70;;
72728;SDS011;60843;52.062;4.508;2022-11-15T15:29:46;2.50;;;0.80;;
72728;SDS011;60843;52.062;4.508;2022-11-15T15:32:11;5.10;;;1.00;;
72728;SDS011;60843;52.062;4.508;2022-11-15T15:34:38;1.73;;;0.90;;
72728;SDS011;60843;52.062;4.508;2022-11-15T15:37:08;4.80;;;1.30;;
72728;SDS011;60843;52.062;4.508;2022-11-15T15:39:34;4.97;;;0.90;;
72728;SDS011;60843;52.062;4.508;2022-11-15T15:41:59;2.87;;;0.80;;
72728;SDS011;60843;52.062;4.508;2022-11-15T15:44:25;3.08;;;1.02;;
72728;SDS011;60843;52.062;4.508;2022-11-15T15:46:50;1.90;;;0.73;;
72728;SDS011;60843;52.062;4.508;2022-11-15T15:49:16;1.95;;;0.73;;
72728;SDS011;60843;52.062;4.508;2022-11-15T15:51:41;3.70;;;0.87;;
72728;SDS011;60843;52.062;4.508;2022-11-15T15:54:06;3.53;;;0.90;;
72728;SDS011;60843;52.062;4.508;2022-11-15T15:56:32;4.17;;;1.10;;
72728;SDS011;60843;52.062;4.508;2022-11-15T15:58:57;4.03;;;1.20;;
72728;SDS011;60843;52.062;4.508;2022-11-15T16:01:22;3.67;;;0.87;;
72728;SDS011;60843;52.062;4.508;2022-11-15T16:03:49;2.78;;;0.95;;
72728;SDS011;60843;52.062;4.508;2022-11-15T16:09:00;2.67;;;0.85;;
72728;SDS011;60843;52.062;4.508;2022-11-15T16:11:26;4.75;;;1.33;;
72728;SDS011;60843;52.062;4.508;2022-11-15T16:13:52;4.03;;;1.00;;
72728;SDS011;60843;52.062;4.508;2022-11-15T16:16:17;4.80;;;1.08;;
72728;SDS011;60843;52.062;4.508;2022-11-15T16:18:44;3.58;;;0.85;;
72728;SDS011;60843;52.062;4.508;2022-11-15T16:21:09;2.60;;;1.03;;
72728;SDS011;60843;52.062;4.508;2022-11-15T16:23:35;4.23;;;1.40;;
72728;SDS011;60843;52.062;4.508;2022-11-15T16:26:00;3.73;;;1.00;;
72728;SDS011;60843;52.062;4.508;2022-11-15T16:28:28;3.25;;;1.50;;
72728;SDS011;60843;52.062;4.508;2022-11-15T16:31:02;5.57;;;1.23;;
72728;SDS011;60843;52.062;4.508;2022-11-15T16:33:28;5.28;;;1.42;;
72728;SDS011;60843;52.062;4.508;2022-11-15T16:35:54;4.83;;;1.30;;
72728;SDS011;60843;52.062;4.508;2022-11-15T16:38:19;7.43;;;1.40;;
72728;SDS011;60843;52.062;4.508;2022-11-15T16:40:44;4.20;;;1.60;;
72728;SDS011;60843;52.062;4.508;2022-11-15T16:43:10;6.95;;;2.03;;
72728;SDS011;60843;52.062;4.508;2022-11-15T16:45:35;5.53;;;1.70;;
72728;SDS011;60843;52.062;4.508;2022-11-15T16:48:01;5.95;;;1.92;;
72728;SDS011;60843;52.062;4.508;2022-11-15T16:50:28;6.72;;;2.00;;
72728;SDS011;60843;52.062;4.508;2022-11-15T16:52:55;5.05;;;1.88;;